Time;durP1;ratioP1;P1;durP2;ratioP2;P2;SDS_P1;SDS_P2;PMS_P1;PMS_P2;Temp;Humidity;BMP_temperature;BMP_pressure;BME280_temperature;BME280_humidity;BME280_pressure;Samples;Min_cycle;Max_cycle;Signal;HPM_P1;HPM_P2
2022/11/26 00:00:28;;;;;;;1.20;1.20;;;5.40;82.60;;;;;;4955088;28;20190;-73
2022/11/26 00:02:53;;;;;;;0.90;0.90;;;5.40;82.60;;;;;;4956030;28;20673;-74
2022/11/26 00:05:20;;;;;;;1.07;1.03;;;5.50;82.60;;;;;;4954800;28;20197;-72
2022/11/26 00:07:57;;;;;;;1.50;1.40;;;5.40;82.90;;;;;;4957531;28;20185;-73
2022/11/26 00:10:27;;;;;;;1.30;1.27;;;5.50;82.70;;;;;;4956697;28;20690;-73
2022/11/26 00:12:53;;;;;;;1.50;1.40;;;5.50;82.50;;;;;;4950046;28;20726;-73
2022/11/26 00:15:22;;;;;;;1.63;1.53;;;5.50;82.30;;;;;;4948272;28;20206;-71
2022/11/26 00:17:50;;;;;;;1.70;1.60;;;5.50;82.40;;;;;;4953222;28;20258;-73
2022/11/26 00:20:16;;;;;;;1.40;1.40;;;5.50;82.60;;;;;;4949298;28;20625;-72
2022/11/26 00:22:45;;;;;;;1.10;1.10;;;5.50;82.40;;;;;;4950281;28;20179;-74
2022/11/26 00:25:20;;;;;;;3.73;1.97;;;5.40;82.30;;;;;;4950841;28;20202;-73
2022/11/26 00:27:47;;;;;;;1.40;1.30;;;5.40;82.20;;;;;;4947549;28;20182;-72
2022/11/26 00:30:15;;;;;;;2.60;1.90;;;5.40;82.70;;;;;;4952029;28;20222;-73
2022/11/26 00:32:40;;;;;;;3.57;1.80;;;5.40;83.00;;;;;;4955304;28;20277;-71
2022/11/26 00:35:07;;;;;;;1.53;1.43;;;5.40;83.20;;;;;;4947481;28;20179;-74
2022/11/26 00:37:42;;;;;;;2.63;2.07;;;5.40;82.90;;;;;;4952703;28;20261;-72
2022/11/26 00:40:20;;;;;;;1.97;1.87;;;5.30;82.70;;;;;;4952289;28;20676;-72
2022/11/26 00:42:46;;;;;;;2.43;2.20;;;5.30;82.60;;;;;;4952442;28;20190;-73
2022/11/26 00:45:20;;;;;;;1.67;1.57;;;5.30;82.60;;;;;;4954072;28;20349;-72
2022/11/26 00:47:46;;;;;;;4.33;2.17;;;5.30;82.50;;;;;;4947000;28;20191;-74
2022/11/26 00:50:24;;;;;;;1.83;1.60;;;5.30;82.60;;;;;;4955514;28;20183;-74
2022/11/26 00:52:54;;;;;;;1.70;1.60;;;5.30;83.50;;;;;;4950869;28;20246;-74
2022/11/26 00:55:28;;;;;;;1.83;1.77;;;5.20;83.80;;;;;;4951522;28;20581;-72
2022/11/26 00:57:54;;;;;;;2.00;1.90;;;5.20;84.20;;;;;;4949319;28;20209;-73
2022/11/26 01:00:23;;;;;;;1.77;1.67;;;5.20;84.40;;;;;;4953261;28;20190;-74
2022/11/26 01:02:49;;;;;;;4.10;2.03;;;5.20;84.50;;;;;;4947250;28;20190;-73
2022/11/26 01:05:16;;;;;;;2.43;2.33;;;5.10;84.60;;;;;;4946699;28;20178;-74
2022/11/26 01:07:43;;;;;;;4.27;2.43;;;5.10;84.90;;;;;;4955378;28;20181;-73
2022/11/26 01:10:24;;;;;;;1.80;1.70;;;5.10;84.90;;;;;;4952392;28;20205;-74
2022/11/26 01:12:52;;;;;;;1.90;1.53;;;5.10;84.90;;;;;;4951900;28;20705;-72
2022/11/26 01:15:20;;;;;;;2.20;2.00;;;5.10;84.70;;;;;;4951328;28;20888;-74
2022/11/26 01:17:46;;;;;;;1.50;1.50;;;5.00;84.80;;;;;;4954281;28;20192;-74
2022/11/26 01:20:32;;;;;;;1.57;1.50;;;5.00;84.90;;;;;;4952072;28;20179;-73
2022/11/26 01:22:58;;;;;;;1.83;1.73;;;5.00;84.60;;;;;;4951749;28;20221;-74
2022/11/26 01:25:25;;;;;;;1.90;1.73;;;4.80;85.40;;;;;;4952982;28;20190;-73
2022/11/26 01:27:52;;;;;;;1.50;1.40;;;4.70;85.50;;;;;;4951574;28;20766;-73
2022/11/26 01:30:22;;;;;;;1.63;1.47;;;4.70;85.50;;;;;;4951275;28;20278;-73
2022/11/26 01:32:48;;;;;;;2.03;1.90;;;4.70;85.80;;;;;;4948924;28;20218;-74
2022/11/26 01:35:19;;;;;;;1.20;1.20;;;4.70;86.00;;;;;;4948864;28;20182;-73
2022/11/26 01:37:45;;;;;;;1.73;1.67;;;4.70;85.60;;;;;;4954576;28;21461;-73
2022/11/26 01:40:33;;;;;;;1.27;1.27;;;4.70;85.40;;;;;;4946650;28;20185;-73
2022/11/26 01:43:05;;;;;;;2.17;1.70;;;4.70;85.70;;;;;;4946609;28;20194;-73
2022/11/26 01:45:31;;;;;;;1.83;1.63;;;4.70;85.60;;;;;;4954849;28;20213;-73
2022/11/26 01:47:57;;;;;;;2.50;1.70;;;4.70;85.60;;;;;;4951071;28;20691;-73
2022/11/26 01:50:33;;;;;;;2.43;2.00;;;4.60;85.60;;;;;;4955958;28;20195;-73
2022/11/26 01:53:40;;;;;;;1.37;1.20;;;4.60;85.60;;;;;;4954046;28;20218;-73
2022/11/26 01:56:37;;;;;;;1.43;1.37;;;4.60;85.60;;;;;;4888714;29;20608;-71
2022/11/26 01:59:12;;;;;;;1.70;1.33;;;4.60;85.80;;;;;;4889292;29;20193;-74
2022/11/26 02:01:38;;;;;;;2.03;1.93;;;4.60;85.80;;;;;;4889408;29;20220;-73
2022/11/26 02:04:16;;;;;;;1.17;1.07;;;4.60;85.90;;;;;;4889491;29;20732;-73
2022/11/26 02:06:44;;;;;;;1.67;1.57;;;4.60;85.80;;;;;;4890004;29;20200;-73
2022/11/26 02:09:11;;;;;;;2.37;2.27;;;4.60;86.10;;;;;;4889640;29;20593;-73
2022/11/26 02:11:37;;;;;;;5.50;2.00;;;4.50;86.00;;;;;;4888011;29;20197;-72
2022/11/26 02:14:11;;;;;;;1.70;1.23;;;4.50;86.00;;;;;;4887269;29;20228;-73
2022/11/26 02:16:46;;;;;;;2.00;1.90;;;4.50;86.00;;;;;;4888479;29;20593;-73
2022/11/26 02:19:53;;;;;;;1.93;1.83;;;4.50;86.20;;;;;;4889202;29;20192;-73
2022/11/26 02:22:43;;;;;;;2.00;1.90;;;4.40;86.40;;;;;;4851143;29;20210;-74
2022/11/26 02:25:41;;;;;;;1.97;1.87;;;4.40;86.20;;;;;;4848475;29;20831;-72
2022/11/26 02:28:26;;;;;;;1.93;1.87;;;4.40;86.50;;;;;;4850785;29;20206;-72
2022/11/26 02:31:11;;;;;;;3.20;2.10;;;4.30;86.60;;;;;;4906076;29;20226;-72
2022/11/26 02:34:13;;;;;;;2.10;2.00;;;4.30;87.00;;;;;;4910670;29;20231;-72
2022/11/26 02:36:50;;;;;;;2.20;1.60;;;4.30;87.00;;;;;;4869839;29;20208;-72
2022/11/26 02:39:18;;;;;;;2.80;1.80;;;4.20;87.10;;;;;;4868656;29;20206;-73
2022/11/26 02:41:48;;;;;;;2.47;2.30;;;4.20;87.00;;;;;;4869119;29;20682;-73
2022/11/26 02:44:16;;;;;;;2.13;2.03;;;4.20;87.10;;;;;;4868793;29;20205;-74
2022/11/26 02:46:44;;;;;;;4.47;2.30;;;4.20;87.20;;;;;;4870787;29;20216;-72
2022/11/26 02:49:12;;;;;;;2.83;2.63;;;4.20;86.90;;;;;;4871370;29;20186;-73
2022/11/26 02:51:40;;;;;;;5.87;2.77;;;4.20;86.80;;;;;;4868713;29;20193;-73
2022/11/26 02:54:08;;;;;;;3.47;2.30;;;4.20;86.70;;;;;;4868648;29;20237;-72
2022/11/26 02:56:34;;;;;;;3.80;2.87;;;4.20;86.90;;;;;;4868622;29;20244;-72
2022/11/26 02:59:00;;;;;;;2.57;2.43;;;4.20;87.10;;;;;;4879172;29;20577;-73
2022/11/26 03:01:41;;;;;;;2.50;2.33;;;4.10;87.20;;;;;;4896052;29;20209;-73
2022/11/26 03:04:11;;;;;;;2.70;2.53;;;4.10;87.10;;;;;;4902160;29;20192;-74
2022/11/26 03:06:39;;;;;;;2.53;2.33;;;4.10;87.10;;;;;;4900185;29;20249;-73
2022/11/26 03:09:05;;;;;;;2.70;2.50;;;4.10;87.10;;;;;;4900121;29;20623;-73
2022/11/26 03:11:31;;;;;;;2.90;2.70;;;4.00;87.10;;;;;;4899217;29;20199;-73
2022/11/26 03:13:57;;;;;;;2.90;2.70;;;4.00;87.30;;;;;;4927065;28;20230;-73
2022/11/26 03:16:23;;;;;;;2.37;2.27;;;4.00;87.60;;;;;;4947539;28;20195;-73
2022/11/26 03:18:48;;;;;;;3.63;2.30;;;4.00;87.60;;;;;;4951264;28;20187;-74
2022/11/26 03:21:14;;;;;;;3.20;2.87;;;4.00;87.70;;;;;;4952661;28;20682;-74
2022/11/26 03:23:40;;;;;;;5.63;3.03;;;4.00;87.90;;;;;;4958669;28;20202;-73
2022/11/26 03:26:05;;;;;;;2.83;2.53;;;4.00;87.90;;;;;;4953897;28;20206;-73
2022/11/26 03:28:31;;;;;;;3.93;3.10;;;3.90;88.10;;;;;;4959158;28;20222;-72
2022/11/26 03:30:57;;;;;;;4.83;2.77;;;3.90;87.80;;;;;;4952780;28;20273;-73
2022/11/26 03:33:22;;;;;;;2.57;2.37;;;3.90;87.80;;;;;;4955083;28;20246;-72
2022/11/26 03:35:49;;;;;;;2.70;2.50;;;3.80;87.80;;;;;;4949526;28;20242;-72
2022/11/26 03:38:15;;;;;;;3.23;3.00;;;3.80;87.80;;;;;;4953412;28;20206;-74
2022/11/26 03:40:41;;;;;;;2.37;2.27;;;3.80;87.80;;;;;;4954913;28;20187;-73
2022/11/26 03:43:06;;;;;;;2.67;2.50;;;3.80;87.80;;;;;;4952014;28;20266;-72
2022/11/26 03:45:32;;;;;;;3.53;2.57;;;3.80;88.20;;;;;;4955630;28;20179;-72
2022/11/26 03:47:58;;;;;;;3.37;2.73;;;3.80;88.10;;;;;;4946515;28;20202;-72
2022/11/26 03:50:23;;;;;;;2.67;2.23;;;3.70;88.30;;;;;;4956886;28;20190;-73
2022/11/26 03:52:49;;;;;;;3.70;2.80;;;3.80;88.70;;;;;;4949416;28;20219;-72
2022/11/26 03:55:15;;;;;;;2.47;2.27;;;3.80;88.80;;;;;;4952878;28;20246;-73
2022/11/26 03:57:40;;;;;;;2.83;2.63;;;3.80;88.90;;;;;;4951597;28;20190;-74
2022/11/26 04:00:08;;;;;;;2.33;2.27;;;3.70;88.80;;;;;;4954136;28;20728;-74
2022/11/26 04:02:34;;;;;;;2.67;2.40;;;3.70;88.90;;;;;;4951580;28;20439;-73
2022/11/26 04:05:00;;;;;;;3.33;2.10;;;3.70;89.30;;;;;;4948496;28;20788;-72
2022/11/26 04:07:26;;;;;;;3.30;3.10;;;3.60;89.50;;;;;;4951721;28;20264;-72
2022/11/26 04:09:51;;;;;;;5.57;2.53;;;3.60;89.40;;;;;;4956034;28;20190;-72
2022/11/26 04:12:17;;;;;;;2.20;2.10;;;3.60;89.30;;;;;;4950175;28;20585;-72
2022/11/26 04:14:43;;;;;;;3.30;2.97;;;3.60;89.70;;;;;;4954351;28;20183;-73
2022/11/26 04:17:08;;;;;;;2.27;2.17;;;3.60;89.50;;;;;;4952254;28;20221;-73
2022/11/26 04:19:34;;;;;;;2.80;1.80;;;3.50;89.40;;;;;;4949584;28;20689;-73
2022/11/26 04:22:00;;;;;;;2.27;2.17;;;3.50;89.50;;;;;;4948116;28;20213;-72
2022/11/26 04:24:26;;;;;;;4.73;3.20;;;3.50;89.50;;;;;;4952774;28;20190;-73
2022/11/26 04:26:51;;;;;;;3.70;2.83;;;3.50;89.10;;;;;;4952443;28;20694;-73
2022/11/26 04:29:17;;;;;;;3.60;2.50;;;3.50;89.10;;;;;;4945494;28;20195;-72
2022/11/26 04:31:43;;;;;;;2.93;2.73;;;3.40;89.10;;;;;;4949133;28;20278;-73
2022/11/26 04:34:08;;;;;;;2.97;2.77;;;3.40;89.10;;;;;;4951523;28;20259;-72
2022/11/26 04:36:34;;;;;;;3.53;2.70;;;3.40;88.90;;;;;;4949489;28;20187;-73
2022/11/26 04:39:00;;;;;;;3.73;2.90;;;3.40;89.00;;;;;;4953556;28;20278;-74
2022/11/26 04:41:25;;;;;;;3.37;2.83;;;3.30;88.80;;;;;;4953026;28;20649;-74
2022/11/26 04:43:51;;;;;;;2.67;2.47;;;3.30;89.00;;;;;;4953435;28;20571;-73
2022/11/26 04:46:17;;;;;;;3.10;2.73;;;3.30;88.60;;;;;;4952425;28;20238;-73
2022/11/26 04:48:43;;;;;;;2.23;2.00;;;3.20;88.80;;;;;;4938502;28;20203;-74
2022/11/26 04:51:09;;;;;;;7.60;3.00;;;3.20;88.80;;;;;;4950510;28;20201;-71
2022/11/26 04:53:35;;;;;;;3.33;3.03;;;3.20;88.60;;;;;;4953424;28;20609;-73
2022/11/26 04:56:00;;;;;;;3.20;2.87;;;3.20;88.50;;;;;;4951824;28;20237;-73
2022/11/26 04:58:26;;;;;;;4.27;2.80;;;3.20;88.50;;;;;;4950251;28;20186;-74
2022/11/26 05:00:52;;;;;;;3.30;3.07;;;3.20;88.90;;;;;;4945442;28;20187;-73
2022/11/26 05:03:18;;;;;;;5.03;3.07;;;3.20;89.20;;;;;;4950560;28;20198;-73
2022/11/26 05:05:43;;;;;;;3.57;3.23;;;3.20;89.60;;;;;;4950122;28;20209;-72
2022/11/26 05:08:09;;;;;;;3.10;2.70;;;3.20;89.90;;;;;;4955765;28;20190;-72
2022/11/26 05:10:35;;;;;;;6.50;3.27;;;3.10;89.90;;;;;;4952923;28;20170;-72
2022/11/26 05:13:00;;;;;;;3.10;2.63;;;3.00;89.60;;;;;;4953909;28;20831;-75
2022/11/26 05:15:26;;;;;;;5.73;2.80;;;3.00;89.80;;;;;;4952668;28;20226;-72
2022/11/26 05:17:52;;;;;;;2.87;2.67;;;2.90;90.20;;;;;;4952938;28;20579;-72
2022/11/26 05:20:18;;;;;;;5.47;2.77;;;3.00;90.40;;;;;;4946940;28;20190;-72
2022/11/26 05:22:43;;;;;;;3.43;2.67;;;2.90;90.40;;;;;;4956198;28;20222;-73
2022/11/26 05:25:09;;;;;;;2.23;2.13;;;2.90;90.50;;;;;;4952316;28;20262;-73
2022/11/26 05:27:35;;;;;;;2.27;2.07;;;2.90;90.50;;;;;;4960273;28;20182;-72
2022/11/26 05:30:02;;;;;;;3.20;2.33;;;2.90;90.30;;;;;;4956142;28;20186;-74
2022/11/26 05:32:27;;;;;;;2.90;2.70;;;2.80;90.20;;;;;;4955220;28;20221;-72
2022/11/26 05:34:53;;;;;;;3.23;1.80;;;2.70;90.70;;;;;;4953908;28;20187;-73
2022/11/26 05:37:19;;;;;;;2.17;2.07;;;2.70;90.90;;;;;;4954119;28;20637;-72
2022/11/26 05:39:44;;;;;;;3.13;2.37;;;2.60;91.20;;;;;;4957253;28;20191;-73
2022/11/26 05:42:10;;;;;;;3.27;2.63;;;2.60;91.20;;;;;;4956248;28;20178;-74
2022/11/26 05:44:36;;;;;;;2.73;2.53;;;2.60;91.20;;;;;;4953232;28;20199;-74
2022/11/26 05:47:02;;;;;;;3.07;2.63;;;2.50;91.10;;;;;;4953701;28;20190;-69
2022/11/26 05:49:27;;;;;;;3.23;2.07;;;2.50;91.10;;;;;;4958238;28;20187;-70
2022/11/26 05:51:53;;;;;;;3.00;1.70;;;2.60;91.10;;;;;;4951986;28;20179;-69
2022/11/26 05:54:19;;;;;;;1.73;1.63;;;2.60;91.20;;;;;;4953356;28;20242;-74
2022/11/26 05:56:44;;;;;;;2.13;1.87;;;2.70;91.30;;;;;;4956839;28;20198;-74
2022/11/26 05:59:10;;;;;;;1.93;1.83;;;2.60;91.00;;;;;;4953059;28;20687;-73
2022/11/26 06:01:36;;;;;;;3.10;2.77;;;2.70;91.30;;;;;;4950751;28;20778;-74
2022/11/26 06:04:02;;;;;;;3.27;2.63;;;2.70;91.50;;;;;;4954075;28;20724;-75
2022/11/26 06:06:27;;;;;;;1.83;1.67;;;2.70;91.50;;;;;;4956768;28;20189;-75
2022/11/26 06:08:53;;;;;;;2.17;2.00;;;2.70;91.20;;;;;;4959452;28;20672;-74
2022/11/26 06:11:19;;;;;;;1.73;1.63;;;2.70;91.30;;;;;;4959108;28;20664;-73
2022/11/26 06:13:44;;;;;;;2.03;1.93;;;2.70;91.40;;;;;;4955449;28;20206;-73
2022/11/26 06:16:10;;;;;;;3.77;2.43;;;2.80;91.50;;;;;;4953149;28;20191;-74
2022/11/26 06:18:37;;;;;;;3.10;2.80;;;2.70;91.80;;;;;;4954800;28;20186;-74
2022/11/26 06:21:04;;;;;;;2.03;1.80;;;2.70;91.70;;;;;;4960328;28;20685;-73
2022/11/26 06:23:31;;;;;;;3.53;3.03;;;2.80;91.40;;;;;;4954573;28;20716;-74
2022/11/26 06:25:56;;;;;;;3.50;2.20;;;2.90;91.60;;;;;;4950939;28;20186;-74
2022/11/26 06:28:22;;;;;;;3.10;2.70;;;2.80;91.60;;;;;;4959517;28;20237;-75
2022/11/26 06:30:48;;;;;;;1.90;1.80;;;2.90;91.90;;;;;;4954916;28;20187;-74
2022/11/26 06:33:14;;;;;;;2.60;2.40;;;3.00;92.70;;;;;;4951127;28;20227;-74
2022/11/26 06:35:39;;;;;;;3.97;3.67;;;3.20;92.70;;;;;;4954653;28;20183;-73
2022/11/26 06:38:05;;;;;;;2.70;2.50;;;3.40;93.10;;;;;;4958190;28;20187;-75
2022/11/26 06:40:30;;;;;;;6.60;3.33;;;3.60;93.20;;;;;;4953428;28;20671;-75
2022/11/26 06:42:56;;;;;;;10.63;2.53;;;3.80;93.40;;;;;;4959363;28;20226;-74
2022/11/26 06:45:22;;;;;;;2.97;2.63;;;4.00;93.10;;;;;;4955596;28;20225;-75
2022/11/26 06:47:49;;;;;;;4.03;2.97;;;4.20;92.60;;;;;;4953340;28;20234;-73
2022/11/26 06:50:20;;;;;;;2.47;2.27;;;4.30;92.00;;;;;;4954347;28;20330;-73
2022/11/26 06:52:50;;;;;;;3.60;3.40;;;4.50;91.80;;;;;;4957409;28;20623;-73
2022/11/26 06:55:16;;;;;;;3.07;2.87;;;4.60;91.40;;;;;;4944747;28;20191;-75
2022/11/26 06:57:42;;;;;;;3.57;3.37;;;4.70;91.20;;;;;;4950801;28;20261;-75
2022/11/26 07:00:08;;;;;;;5.27;3.30;;;4.90;90.80;;;;;;4951001;28;20188;-75
2022/11/26 07:02:34;;;;;;;3.67;3.37;;;5.00;90.50;;;;;;4949667;28;20195;-75
2022/11/26 07:04:59;;;;;;;4.37;3.97;;;5.10;90.10;;;;;;4956463;28;20213;-74
2022/11/26 07:07:25;;;;;;;4.80;3.50;;;5.10;89.60;;;;;;4950848;28;20612;-75
2022/11/26 07:09:50;;;;;;;3.83;3.20;;;5.20;89.20;;;;;;4957629;28;20215;-74
2022/11/26 07:12:16;;;;;;;3.97;3.67;;;5.20;88.90;;;;;;4954212;28;20191;-74
2022/11/26 07:14:42;;;;;;;6.83;3.90;;;5.30;88.90;;;;;;4949871;28;20270;-73
2022/11/26 07:17:08;;;;;;;3.47;3.17;;;5.30;88.10;;;;;;4949367;28;20785;-74
2022/11/26 07:19:34;;;;;;;7.03;3.77;;;5.30;87.70;;;;;;4957326;28;20186;-74
2022/11/26 07:22:00;;;;;;;4.50;3.70;;;5.40;87.40;;;;;;4952947;28;20210;-74
2022/11/26 07:24:25;;;;;;;3.50;3.03;;;5.40;87.40;;;;;;4955845;28;20252;-74
2022/11/26 07:26:51;;;;;;;3.33;3.10;;;5.40;87.50;;;;;;4954888;28;20207;-74
2022/11/26 07:29:17;;;;;;;5.60;4.03;;;5.40;87.60;;;;;;4955245;28;20179;-74
2022/11/26 07:31:42;;;;;;;3.73;3.47;;;5.40;87.10;;;;;;4956983;28;20716;-73
2022/11/26 07:34:08;;;;;;;4.37;3.97;;;5.40;87.10;;;;;;4957496;28;20194;-74
2022/11/26 07:36:34;;;;;;;10.10;4.03;;;5.50;87.20;;;;;;4953248;28;20217;-74
2022/11/26 07:39:01;;;;;;;4.47;3.57;;;5.50;86.80;;;;;;4953351;28;20198;-75
2022/11/26 07:41:28;;;;;;;4.03;3.63;;;5.50;87.00;;;;;;4952395;28;20256;-74
2022/11/26 07:43:54;;;;;;;5.47;4.00;;;5.50;87.10;;;;;;4957502;28;20214;-74
2022/11/26 07:46:23;;;;;;;4.87;3.87;;;5.50;87.00;;;;;;4951548;28;20990;-75
2022/11/26 07:48:49;;;;;;;6.83;4.83;;;5.60;87.40;;;;;;4947289;28;20186;-75
2022/11/26 07:51:20;;;;;;;11.13;6.47;;;5.70;87.20;;;;;;4947382;28;20265;-74
2022/11/26 07:53:46;;;;;;;7.60;4.90;;;5.60;86.50;;;;;;4950692;28;20238;-75
2022/11/26 07:56:12;;;;;;;6.37;4.80;;;5.60;86.70;;;;;;4949271;28;20186;-74
2022/11/26 07:58:37;;;;;;;6.17;4.87;;;5.70;86.80;;;;;;4952655;28;20216;-76
2022/11/26 08:01:11;;;;;;;5.70;5.10;;;5.70;86.80;;;;;;4949348;28;20187;-75
2022/11/26 08:03:39;;;;;;;7.13;4.80;;;5.80;86.80;;;;;;4947069;28;20254;-75
2022/11/26 08:06:07;;;;;;;5.87;4.60;;;5.80;86.80;;;;;;4951084;28;20206;-74
2022/11/26 08:08:34;;;;;;;7.77;5.10;;;5.90;86.90;;;;;;4956128;28;20307;-74
2022/11/26 08:11:00;;;;;;;5.07;4.27;;;5.90;86.90;;;;;;4955889;28;20182;-74
2022/11/26 08:13:26;;;;;;;9.93;5.20;;;6.00;86.90;;;;;;4950663;28;20194;-74
2022/11/26 08:15:52;;;;;;;4.17;3.73;;;6.10;86.90;;;;;;4947165;28;20186;-74
2022/11/26 08:18:17;;;;;;;5.10;4.47;;;6.20;86.90;;;;;;4948639;28;20284;-73
2022/11/26 08:20:43;;;;;;;5.63;5.13;;;6.30;86.20;;;;;;4951817;28;20577;-70
2022/11/26 08:23:09;;;;;;;6.07;5.10;;;6.30;85.10;;;;;;4946858;28;20767;-75
2022/11/26 08:25:35;;;;;;;6.60;4.97;;;6.40;84.70;;;;;;4950246;28;20548;-74
2022/11/26 08:28:00;;;;;;;9.10;5.03;;;6.40;84.30;;;;;;4947401;28;20194;-74
2022/11/26 08:30:26;;;;;;;5.93;4.67;;;6.30;84.80;;;;;;4945243;28;20183;-74
2022/11/26 08:32:52;;;;;;;7.40;4.43;;;6.40;84.30;;;;;;4952882;28;20241;-74
2022/11/26 08:35:17;;;;;;;4.97;4.20;;;6.40;84.20;;;;;;4953660;28;20607;-73
2022/11/26 08:37:43;;;;;;;4.60;4.20;;;6.30;84.00;;;;;;4950656;28;20883;-70
2022/11/26 08:40:09;;;;;;;5.77;4.13;;;6.30;84.60;;;;;;4950097;28;20183;-77
2022/11/26 08:42:35;;;;;;;4.43;4.03;;;6.30;84.90;;;;;;4950965;28;20201;-77
2022/11/26 08:45:00;;;;;;;7.43;5.17;;;6.40;85.20;;;;;;4947807;28;20638;-76
2022/11/26 08:47:27;;;;;;;7.87;5.90;;;6.50;85.30;;;;;;4957480;28;20202;-77
2022/11/26 08:49:53;;;;;;;7.57;5.77;;;6.60;85.40;;;;;;4949343;28;20213;-76
2022/11/26 08:52:18;;;;;;;8.67;6.23;;;6.60;85.20;;;;;;4960068;28;20581;-76
2022/11/26 08:54:44;;;;;;;9.17;6.20;;;6.70;84.80;;;;;;4955117;28;20244;-75
2022/11/26 08:57:10;;;;;;;7.77;5.07;;;6.70;83.10;;;;;;4954937;28;20297;-75
2022/11/26 08:59:35;;;;;;;5.97;5.40;;;6.70;84.00;;;;;;4947396;28;20189;-76
2022/11/26 09:02:01;;;;;;;9.43;6.30;;;6.80;84.30;;;;;;4937711;28;20296;-75
2022/11/26 09:04:26;;;;;;;9.63;5.70;;;6.90;84.70;;;;;;4952190;28;20214;-76
2022/11/26 09:06:52;;;;;;;6.33;5.37;;;7.10;85.10;;;;;;4951069;28;20214;-76
2022/11/26 09:09:18;;;;;;;5.00;4.33;;;7.20;85.30;;;;;;4946797;28;20269;-74
2022/11/26 09:11:55;;;;;;;7.30;5.80;;;7.40;85.10;;;;;;4953513;28;20182;-79
2022/11/26 09:14:26;;;;;;;6.47;5.03;;;7.60;85.00;;;;;;4949738;28;20837;-73
2022/11/26 09:16:53;;;;;;;4.27;3.87;;;7.80;84.30;;;;;;4953222;28;20673;-74
2022/11/26 09:19:19;;;;;;;5.47;4.97;;;8.00;84.00;;;;;;4952559;28;20195;-74
2022/11/26 09:21:45;;;;;;;6.70;4.93;;;8.30;84.90;;;;;;4947802;28;20229;-77
2022/11/26 09:24:11;;;;;;;5.40;4.90;;;8.80;85.10;;;;;;4946539;28;20219;-74
2022/11/26 09:26:37;;;;;;;8.87;4.63;;;9.50;84.50;;;;;;4948510;28;20251;-74
2022/11/26 09:29:03;;;;;;;6.73;5.50;;;10.30;83.70;;;;;;4953960;28;20186;-74
2022/11/26 09:31:29;;;;;;;5.93;5.32;;;11.20;80.20;;;;;;4948480;28;20187;-74
2022/11/26 09:33:59;;;;;;;7.80;5.57;;;12.20;75.30;;;;;;4947612;28;20286;-74
2022/11/26 09:36:25;;;;;;;6.13;5.57;;;12.90;73.40;;;;;;4947275;28;20187;-74
2022/11/26 09:38:56;;;;;;;6.45;5.75;;;13.40;71.20;;;;;;4954552;28;20200;-74
2022/11/26 09:41:27;;;;;;;6.45;5.78;;;13.80;70.30;;;;;;4951370;28;20191;-74
2022/11/26 09:44:04;;;;;;;6.45;5.82;;;14.00;70.10;;;;;;4947862;28;20206;-74
2022/11/26 09:46:56;;;;;;;7.20;6.32;;;14.10;70.00;;;;;;4932884;28;20217;-75
2022/11/26 09:49:22;;;;;;;10.07;7.28;;;14.20;70.10;;;;;;4886575;29;20284;-76
2022/11/26 09:51:51;;;;;;;7.63;6.70;;;14.30;68.00;;;;;;4884877;29;20246;-77
2022/11/26 09:54:21;;;;;;;7.15;6.03;;;14.50;69.10;;;;;;4887720;29;20209;-76
2022/11/26 09:56:52;;;;;;;8.80;5.50;;;14.80;69.50;;;;;;4884786;29;20295;-77
2022/11/26 09:59:19;;;;;;;6.25;5.75;;;15.20;68.70;;;;;;4888080;29;20189;-76
2022/11/26 10:01:45;;;;;;;5.72;5.28;;;15.70;66.80;;;;;;4886993;29;20200;-74
2022/11/26 10:04:23;;;;;;;6.28;5.68;;;16.10;65.50;;;;;;4886260;29;20243;-75
2022/11/26 10:07:04;;;;;;;6.63;6.00;;;16.60;65.50;;;;;;4890425;29;21107;-75
2022/11/26 10:09:48;;;;;;;5.93;5.30;;;17.10;63.60;;;;;;4890726;29;20809;-76
2022/11/26 10:12:30;;;;;;;5.60;5.10;;;17.50;63.40;;;;;;4897130;29;20189;-77
2022/11/26 10:15:11;;;;;;;6.00;4.90;;;17.80;63.60;;;;;;4897490;29;20360;-74
2022/11/26 10:17:48;;;;;;;6.25;5.82;;;18.20;62.70;;;;;;4891589;29;20189;-76
2022/11/26 10:20:50;;;;;;;5.82;5.32;;;18.60;61.10;;;;;;4895970;29;20203;-76
2022/11/26 10:23:30;;;;;;;7.15;6.30;;;18.90;61.20;;;;;;4894916;29;20212;-76
2022/11/26 10:26:11;;;;;;;6.25;5.75;;;19.20;61.50;;;;;;4924904;28;20208;-76
2022/11/26 10:28:49;;;;;;;7.50;6.80;;;19.50;61.20;;;;;;4959748;28;20194;-76
2022/11/26 10:31:30;;;;;;;8.27;7.13;;;19.80;61.10;;;;;;4969579;28;20192;-76
2022/11/26 10:34:02;;;;;;;9.30;7.50;;;20.20;61.20;;;;;;4955935;28;20190;-75
2022/11/26 10:36:36;;;;;;;8.05;7.30;;;20.50;60.00;;;;;;4956084;28;20190;-76
2022/11/26 10:39:02;;;;;;;7.70;6.95;;;20.70;57.80;;;;;;4964325;28;20193;-76
2022/11/26 10:41:32;;;;;;;8.38;6.90;;;20.80;58.10;;;;;;4961104;28;20198;-76
2022/11/26 10:44:26;;;;;;;12.50;8.15;;;21.00;58.30;;;;;;4968033;28;20594;-76
2022/11/26 10:46:52;;;;;;;8.77;7.88;;;21.20;52.20;;;;;;4958670;28;20194;-76
2022/11/26 10:49:27;;;;;;;8.98;8.18;;;21.10;54.50;;;;;;4956752;28;20822;-76
2022/11/26 10:52:02;;;;;;;7.93;7.30;;;21.20;57.10;;;;;;4956109;28;20189;-76
2022/11/26 10:54:36;;;;;;;7.95;7.22;;;21.40;58.00;;;;;;4959827;28;20216;-75
2022/11/26 10:57:08;;;;;;;7.32;6.65;;;21.50;57.10;;;;;;4959883;28;20276;-76
2022/11/26 10:59:50;;;;;;;8.43;7.47;;;21.70;56.10;;;;;;4958848;28;20191;-76
2022/11/26 11:02:16;;;;;;;9.48;7.28;;;22.00;56.10;;;;;;4963235;28;20178;-77
2022/11/26 11:04:49;;;;;;;7.28;6.63;;;22.20;54.30;;;;;;4966718;28;20717;-76
2022/11/26 11:07:30;;;;;;;7.60;6.93;;;22.30;55.70;;;;;;4959524;28;20277;-75
2022/11/26 11:10:12;;;;;;;7.80;7.03;;;22.40;55.20;;;;;;4965148;28;20190;-75
2022/11/26 11:12:39;;;;;;;7.60;7.00;;;22.60;56.80;;;;;;4968141;28;20594;-76
2022/11/26 11:15:17;;;;;;;7.03;6.50;;;22.70;54.00;;;;;;4958313;28;20281;-75
2022/11/26 11:17:44;;;;;;;6.95;6.47;;;22.90;54.90;;;;;;4959317;28;20753;-77
2022/11/26 11:20:16;;;;;;;7.13;6.53;;;23.00;53.10;;;;;;4962130;28;20175;-76
2022/11/26 11:22:43;;;;;;;6.43;5.93;;;23.00;55.50;;;;;;4969744;28;20186;-77
2022/11/26 11:25:25;;;;;;;7.13;6.40;;;23.00;53.80;;;;;;4960733;28;20189;-76
2022/11/26 11:27:52;;;;;;;7.45;6.85;;;22.90;53.80;;;;;;4962053;28;20182;-75
2022/11/26 11:30:27;;;;;;;7.43;6.72;;;22.90;53.20;;;;;;4960902;28;20179;-77
2022/11/26 11:32:57;;;;;;;13.10;7.00;;;22.80;53.10;;;;;;4959079;28;20301;-75
2022/11/26 11:35:29;;;;;;;8.57;6.30;;;22.70;50.10;;;;;;4957720;28;20194;-76
2022/11/26 11:37:56;;;;;;;6.72;6.05;;;22.70;52.80;;;;;;4958353;28;20182;-76
2022/11/26 11:40:26;;;;;;;6.93;6.00;;;22.80;53.00;;;;;;4960501;28;20183;-76
2022/11/26 11:43:03;;;;;;;6.03;5.50;;;22.90;50.40;;;;;;4956708;28;20183;-76
2022/11/26 11:45:39;;;;;;;8.23;6.45;;;22.50;53.20;;;;;;4954240;28;20197;-76
2022/11/26 11:48:26;;;;;;;6.15;5.72;;;22.20;53.60;;;;;;4964395;28;20760;-76
2022/11/26 11:51:08;;;;;;;4.57;4.28;;;22.20;50.60;;;;;;4962864;28;20317;-76
2022/11/26 11:53:36;;;;;;;4.28;3.92;;;22.10;52.20;;;;;;4958560;28;20245;-76
2022/11/26 11:56:37;;;;;;;4.75;3.42;;;22.10;51.00;;;;;;4955643;28;20265;-76
2022/11/26 11:59:35;;;;;;;5.10;4.00;;;22.20;50.50;;;;;;4956798;28;20179;-76
2022/11/26 12:02:30;;;;;;;6.00;4.53;;;21.80;49.70;;;;;;4957186;28;20183;-76
2022/11/26 12:04:59;;;;;;;3.78;3.47;;;21.60;48.20;;;;;;4960717;28;20187;-76
2022/11/26 12:07:36;;;;;;;4.32;4.03;;;21.10;50.10;;;;;;4955614;28;20199;-77
2022/11/26 12:10:11;;;;;;;4.05;3.78;;;21.10;50.80;;;;;;4953836;28;20197;-76
2022/11/26 12:12:51;;;;;;;4.20;3.90;;;20.60;49.20;;;;;;4956805;28;20217;-76
2022/11/26 12:15:36;;;;;;;3.97;3.67;;;20.30;50.80;;;;;;4957068;28;20788;-77
2022/11/26 12:18:25;;;;;;;3.50;3.25;;;20.00;49.20;;;;;;4936945;28;20687;-77
2022/11/26 12:21:12;;;;;;;3.72;3.50;;;19.90;50.10;;;;;;4934042;28;20191;-75
2022/11/26 12:23:51;;;;;;;4.38;4.05;;;19.70;50.50;;;;;;4952956;28;20205;-75
2022/11/26 12:27:00;;;;;;;4.93;4.57;;;19.70;51.10;;;;;;4958579;28;20815;-77
2022/11/26 12:29:40;;;;;;;4.97;4.57;;;19.90;51.70;;;;;;4889780;29;20189;-77
2022/11/26 12:32:14;;;;;;;5.18;4.82;;;19.90;51.00;;;;;;4891039;29;20264;-76
2022/11/26 12:34:46;;;;;;;5.68;5.15;;;20.00;50.40;;;;;;4889162;29;20216;-76
2022/11/26 12:37:39;;;;;;;4.60;4.30;;;19.90;52.70;;;;;;4891101;29;20189;-73
2022/11/26 12:40:05;;;;;;;4.97;4.57;;;19.90;50.90;;;;;;4889305;29;20261;-76
2022/11/26 12:42:55;;;;;;;4.72;4.43;;;19.70;51.70;;;;;;4889981;29;20377;-76
2022/11/26 12:45:35;;;;;;;5.13;4.82;;;19.30;51.40;;;;;;4886510;29;20213;-75
2022/11/26 12:48:29;;;;;;;5.05;4.60;;;18.90;51.40;;;;;;4886797;29;20218;-75
2022/11/26 12:51:01;;;;;;;5.45;4.28;;;18.90;54.70;;;;;;4886735;29;20229;-75
2022/11/26 12:53:39;;;;;;;5.45;4.97;;;18.80;51.60;;;;;;4887191;29;20221;-75
2022/11/26 12:56:23;;;;;;;5.57;5.07;;;18.90;53.40;;;;;;4888547;29;20177;-76
2022/11/26 12:59:01;;;;;;;5.60;5.15;;;18.80;52.00;;;;;;4886208;29;21144;-75
2022/11/26 13:01:27;;;;;;;5.30;4.82;;;18.70;53.30;;;;;;4885197;29;20720;-76
2022/11/26 13:03:53;;;;;;;4.28;3.97;;;18.70;53.00;;;;;;4886412;29;20184;-75
2022/11/26 13:06:19;;;;;;;5.43;5.00;;;18.80;54.90;;;;;;4956582;28;20723;-75
2022/11/26 13:09:13;;;;;;;4.63;4.38;;;18.80;53.00;;;;;;4957321;28;20174;-76